Time;durP1;ratioP1;P1;durP2;ratioP2;P2;SDS_P1;SDS_P2;PMS_P1;PMS_P2;Temp;Humidity;BMP_temperature;BMP_pressure;BME280_temperature;BME280_humidity;BME280_pressure;Samples;Min_cycle;Max_cycle;Signal;HPM_P1;HPM_P2
2024/04/10 00:02:03;;;;;;;6.38;1.83;;;;;;;;;;6577925;21;20008;-86
2024/04/10 00:04:29;;;;;;;11.15;2.13;;;;;;;;;;6580546;21;20001;-85
2024/04/10 00:06:55;;;;;;;8.63;1.80;;;;;;;;;;6580267;21;20001;-86
2024/04/10 00:09:20;;;;;;;10.13;1.80;;;;;;;;;;6580450;21;20000;-86
2024/04/10 00:11:46;;;;;;;5.18;1.50;;;;;;;;;;6578175;21;20316;-85
2024/04/10 00:14:11;;;;;;;7.30;1.92;;;;;;;;;;6577870;21;20311;-85
2024/04/10 00:16:37;;;;;;;11.40;2.65;;;;;;;;;;6577842;21;20013;-85
2024/04/10 00:19:04;;;;;;;9.10;1.90;;;;;;;;;;6579586;21;20040;-85
2024/04/10 00:21:32;;;;;;;8.95;2.30;;;;;;;;;;6577461;21;20435;-81
2024/04/10 00:23:57;;;;;;;8.95;1.80;;;;;;;;;;6577878;21;20011;-80
2024/04/10 00:26:23;;;;;;;11.52;2.78;;;;;;;;;;6580252;21;20001;-81
2024/04/10 00:28:48;;;;;;;9.45;2.10;;;;;;;;;;6578004;21;19996;-82
2024/04/10 00:31:14;;;;;;;13.55;2.20;;;;;;;;;;6577292;21;20297;-83
2024/04/10 00:33:39;;;;;;;9.65;2.10;;;;;;;;;;6577826;21;19997;-81
2024/04/10 00:36:05;;;;;;;9.07;1.92;;;;;;;;;;6580308;21;20001;-82
2024/04/10 00:38:32;;;;;;;9.27;2.88;;;;;;;;;;6577740;21;20020;-82
2024/04/10 00:40:59;;;;;;;10.07;2.63;;;;;;;;;;6580109;21;20070;-81
2024/04/10 00:43:25;;;;;;;6.97;2.13;;;;;;;;;;6577746;21;20011;-81
2024/04/10 00:46:10;;;;;;;7.15;1.80;;;;;;;;;;6577458;21;20001;-81
2024/04/10 00:48:39;;;;;;;7.90;1.98;;;;;;;;;;6577153;21;20693;-87
2024/04/10 00:51:10;;;;;;;8.15;1.73;;;;;;;;;;6580837;21;20343;-84
2024/04/10 00:53:37;;;;;;;9.38;1.80;;;;;;;;;;6580245;21;20011;-84
2024/04/10 00:56:03;;;;;;;10.00;1.98;;;;;;;;;;6577608;21;19997;-86
2024/04/10 00:58:31;;;;;;;9.93;1.92;;;;;;;;;;6577722;21;20001;-86
2024/04/10 01:00:57;;;;;;;6.53;1.60;;;;;;;;;;6577828;21;19997;-86
2024/04/10 01:03:24;;;;;;;11.27;2.20;;;;;;;;;;6559248;21;20037;-86
2024/04/10 01:06:03;;;;;;;11.10;2.25;;;;;;;;;;6520703;22;20001;-82
2024/04/10 01:08:29;;;;;;;6.50;1.73;;;;;;;;;;6525170;22;20011;-82
2024/04/10 01:10:57;;;;;;;6.43;1.67;;;;;;;;;;6527638;21;20001;-82
2024/04/10 01:13:24;;;;;;;6.55;1.98;;;;;;;;;;6524349;22;20008;-86
2024/04/10 01:15:50;;;;;;;7.70;1.98;;;;;;;;;;6525222;22;20015;-85
2024/04/10 01:18:15;;;;;;;11.50;1.95;;;;;;;;;;6527037;22;20001;-86
2024/04/10 01:20:41;;;;;;;7.20;1.65;;;;;;;;;;6524303;22;20052;-85
2024/04/10 01:23:06;;;;;;;6.05;1.77;;;;;;;;;;6524661;22;20406;-82
2024/04/10 01:26:51;;;;;;;5.82;1.60;;;;;;;;;;5519523;25;20920;-85
2024/04/10 01:29:16;;;;;;;9.38;1.70;;;;;;;;;;5472209;26;20007;-87
2024/04/10 01:31:45;;;;;;;7.57;1.70;;;;;;;;;;5475660;25;20002;-83
2024/04/10 01:34:10;;;;;;;9.45;2.58;;;;;;;;;;5464358;26;19998;-83
2024/04/10 01:36:39;;;;;;;6.93;1.75;;;;;;;;;;5506433;26;20002;-83
2024/04/10 01:39:05;;;;;;;8.05;2.10;;;;;;;;;;5476000;26;20013;-83
2024/04/10 01:41:31;;;;;;;6.32;2.00;;;;;;;;;;5473158;26;20367;-83
2024/04/10 01:43:56;;;;;;;9.43;1.85;;;;;;;;;;5505024;26;20016;-85
2024/04/10 01:46:22;;;;;;;8.32;2.00;;;;;;;;;;5504861;26;20457;-85
2024/04/10 01:48:47;;;;;;;8.32;1.90;;;;;;;;;;5505979;26;19998;-85
2024/04/10 01:51:12;;;;;;;6.78;1.95;;;;;;;;;;5474176;26;20397;-86
2024/04/10 01:53:38;;;;;;;7.50;2.03;;;;;;;;;;5474102;26;20005;-85
2024/04/10 01:56:03;;;;;;;7.07;2.05;;;;;;;;;;5505408;26;19998;-85
2024/04/10 01:58:31;;;;;;;6.78;2.78;;;;;;;;;;5468194;26;20013;-84
2024/04/10 02:00:57;;;;;;;6.30;1.80;;;;;;;;;;5469563;26;20040;-85
2024/04/10 02:03:22;;;;;;;5.45;1.77;;;;;;;;;;5505168;26;20375;-85
2024/04/10 02:05:47;;;;;;;6.00;2.15;;;;;;;;;;5501133;25;20002;-84
2024/04/10 02:08:13;;;;;;;8.93;2.22;;;;;;;;;;5505518;25;20468;-85
2024/04/10 02:10:38;;;;;;;9.05;2.38;;;;;;;;;;5497355;26;19994;-85
2024/04/10 02:13:04;;;;;;;7.75;2.00;;;;;;;;;;5501965;26;20014;-86
2024/04/10 02:15:29;;;;;;;7.85;2.30;;;;;;;;;;5500707;25;20012;-85
2024/04/10 02:17:54;;;;;;;7.07;2.08;;;;;;;;;;5504555;25;20025;-85
2024/04/10 02:20:21;;;;;;;7.05;2.45;;;;;;;;;;5497454;26;19994;-85
2024/04/10 02:22:47;;;;;;;5.30;1.80;;;;;;;;;;5500746;26;20001;-85
2024/04/10 02:25:13;;;;;;;5.85;2.20;;;;;;;;;;5499652;25;20050;-85
2024/04/10 02:27:38;;;;;;;6.30;1.85;;;;;;;;;;5506495;25;19994;-85
2024/04/10 02:30:05;;;;;;;6.65;2.03;;;;;;;;;;5505470;25;19994;-85
2024/04/10 02:32:31;;;;;;;7.15;2.00;;;;;;;;;;5502646;25;20488;-85
2024/04/10 02:34:56;;;;;;;5.22;2.10;;;;;;;;;;5506181;25;19997;-85
2024/04/10 02:37:22;;;;;;;5.57;1.50;;;;;;;;;;5492430;26;20826;-85
2024/04/10 02:39:48;;;;;;;8.07;2.42;;;;;;;;;;5488981;26;19999;-84
2024/04/10 02:42:14;;;;;;;8.05;2.08;;;;;;;;;;5488663;26;19998;-84
2024/04/10 02:44:39;;;;;;;7.18;2.00;;;;;;;;;;5490358;26;20034;-84
2024/04/10 02:47:04;;;;;;;6.82;2.03;;;;;;;;;;5480920;26;19994;-84
2024/04/10 02:49:30;;;;;;;6.50;1.92;;;;;;;;;;5488914;26;20005;-84
2024/04/10 02:51:55;;;;;;;7.45;2.00;;;;;;;;;;5488342;26;20080;-86
2024/04/10 02:54:20;;;;;;;5.78;1.90;;;;;;;;;;5490516;26;20065;-85
2024/04/10 02:56:46;;;;;;;4.70;1.63;;;;;;;;;;5490086;26;19994;-85
2024/04/10 02:59:11;;;;;;;7.00;2.00;;;;;;;;;;5490034;26;20005;-84
2024/04/10 03:01:39;;;;;;;10.13;2.25;;;;;;;;;;5474712;26;20014;-86
2024/04/10 03:04:05;;;;;;;10.45;2.33;;;;;;;;;;5488265;26;20017;-85
2024/04/10 03:06:30;;;;;;;5.05;1.67;;;;;;;;;;5473250;26;19998;-84
2024/04/10 03:08:56;;;;;;;8.98;2.10;;;;;;;;;;5489557;26;20002;-84
2024/04/10 03:11:21;;;;;;;4.85;1.67;;;;;;;;;;5490335;26;20141;-84
2024/04/10 03:13:47;;;;;;;6.72;1.73;;;;;;;;;;5479481;26;20010;-85
2024/04/10 03:16:17;;;;;;;7.05;1.90;;;;;;;;;;5491780;26;20510;-81
2024/04/10 03:18:43;;;;;;;4.75;1.73;;;;;;;;;;5489808;26;20454;-82
2024/04/10 03:21:10;;;;;;;8.07;1.92;;;;;;;;;;5489640;26;20009;-83
2024/04/10 03:23:35;;;;;;;8.20;2.33;;;;;;;;;;5489607;26;20405;-84
2024/04/10 03:26:05;;;;;;;8.45;2.33;;;;;;;;;;5488994;26;20038;-82
2024/04/10 03:28:33;;;;;;;8.30;2.30;;;;;;;;;;5490366;26;20006;-84
2024/04/10 03:30:59;;;;;;;9.85;2.20;;;;;;;;;;5484318;26;20026;-85
2024/04/10 03:33:26;;;;;;;7.68;1.80;;;;;;;;;;5475804;26;20075;-84
2024/04/10 03:35:52;;;;;;;5.65;1.70;;;;;;;;;;5470589;26;20010;-87
2024/04/10 03:38:18;;;;;;;10.40;2.17;;;;;;;;;;5483748;26;20013;-85
2024/04/10 03:40:44;;;;;;;8.10;2.42;;;;;;;;;;5486885;26;20465;-85
2024/04/10 03:43:10;;;;;;;9.15;2.03;;;;;;;;;;5489592;26;20360;-85
2024/04/10 03:45:36;;;;;;;6.15;1.63;;;;;;;;;;5487964;26;20009;-85
2024/04/10 03:48:02;;;;;;;9.25;2.15;;;;;;;;;;5487484;26;20383;-85
2024/04/10 03:50:27;;;;;;;6.85;2.10;;;;;;;;;;5487803;26;20006;-85
2024/04/10 03:52:53;;;;;;;6.95;1.95;;;;;;;;;;5487401;26;21122;-87
2024/04/10 03:55:18;;;;;;;4.95;1.77;;;;;;;;;;5477950;26;20070;-85
2024/04/10 03:57:43;;;;;;;9.20;1.98;;;;;;;;;;5489502;26;19998;-85
2024/04/10 04:00:09;;;;;;;7.85;1.80;;;;;;;;;;5489030;26;20395;-85
2024/04/10 04:02:34;;;;;;;6.97;2.33;;;;;;;;;;5518296;26;20419;-85
2024/04/10 04:05:00;;;;;;;6.40;1.65;;;;;;;;;;5488375;26;20012;-85
2024/04/10 04:07:25;;;;;;;6.82;1.77;;;;;;;;;;5489371;26;19998;-84
2024/04/10 04:09:56;;;;;;;7.43;2.00;;;;;;;;;;5490507;26;20341;-84
2024/04/10 04:12:22;;;;;;;9.07;2.30;;;;;;;;;;5488984;26;20166;-82
2024/04/10 04:14:47;;;;;;;7.53;1.80;;;;;;;;;;5488340;26;20454;-79
2024/04/10 04:17:12;;;;;;;7.72;1.77;;;;;;;;;;5486791;26;20002;-84
2024/04/10 04:19:38;;;;;;;6.18;1.70;;;;;;;;;;5473812;26;20013;-80
2024/04/10 04:22:03;;;;;;;7.82;1.80;;;;;;;;;;5475923;26;20063;-81
2024/04/10 04:24:32;;;;;;;7.60;2.00;;;;;;;;;;5475377;26;19998;-82
2024/04/10 04:26:57;;;;;;;9.88;2.15;;;;;;;;;;5476797;26;20365;-79
2024/04/10 04:29:23;;;;;;;10.35;1.90;;;;;;;;;;5476238;26;20008;-81
2024/04/10 04:31:50;;;;;;;6.20;1.77;;;;;;;;;;5472555;26;20008;-80
2024/04/10 04:34:16;;;;;;;8.00;2.33;;;;;;;;;;5469704;26;19994;-80
2024/04/10 04:36:42;;;;;;;11.48;2.10;;;;;;;;;;5473332;26;20038;-80
2024/04/10 04:39:13;;;;;;;6.50;2.20;;;;;;;;;;5467190;26;20082;-80
2024/04/10 04:41:39;;;;;;;8.13;2.60;;;;;;;;;;5473506;26;20522;-80
2024/04/10 04:44:04;;;;;;;6.68;1.67;;;;;;;;;;5463957;26;20043;-80
2024/04/10 04:46:30;;;;;;;8.00;2.00;;;;;;;;;;5473288;26;20535;-81
2024/04/10 04:48:55;;;;;;;8.10;1.80;;;;;;;;;;5469194;26;20006;-80
2024/04/10 04:51:21;;;;;;;8.63;1.75;;;;;;;;;;5476144;26;19998;-80
2024/04/10 04:53:47;;;;;;;7.32;2.13;;;;;;;;;;5470375;26;20039;-81
2024/04/10 04:56:12;;;;;;;10.50;2.58;;;;;;;;;;5469184;26;20389;-80
2024/04/10 04:58:37;;;;;;;7.38;2.03;;;;;;;;;;5467732;26;19998;-81
2024/04/10 05:01:03;;;;;;;6.80;2.10;;;;;;;;;;5467893;26;19998;-85
2024/04/10 05:06:12;;;;;;;6.32;1.67;;;;;;;;;;5479267;26;20005;-86
2024/04/10 05:08:38;;;;;;;7.05;1.90;;;;;;;;;;5475095;26;20037;-86
2024/04/10 05:11:07;;;;;;;8.80;1.73;;;;;;;;;;5468070;26;19994;-80
2024/04/10 05:13:33;;;;;;;6.85;1.58;;;;;;;;;;5468678;26;20071;-81
2024/04/10 05:16:02;;;;;;;9.75;2.00;;;;;;;;;;5468965;26;20005;-82
2024/04/10 05:18:28;;;;;;;6.30;1.65;;;;;;;;;;5477003;26;19994;-80
2024/04/10 05:20:53;;;;;;;9.00;2.00;;;;;;;;;;5482044;26;20473;-81
2024/04/10 05:23:19;;;;;;;12.90;3.47;;;;;;;;;;5472130;26;20007;-80
2024/04/10 05:25:46;;;;;;;7.50;1.90;;;;;;;;;;5476614;26;20074;-81
2024/04/10 05:28:11;;;;;;;8.73;2.10;;;;;;;;;;5485038;26;21234;-80
2024/04/10 05:30:37;;;;;;;5.45;1.70;;;;;;;;;;5484336;26;20050;-80
2024/04/10 05:33:03;;;;;;;7.07;1.88;;;;;;;;;;5474527;26;20009;-79
2024/04/10 05:35:31;;;;;;;6.20;1.52;;;;;;;;;;5469279;26;20142;-80
2024/04/10 05:37:59;;;;;;;6.55;1.67;;;;;;;;;;5470696;26;20453;-79
2024/04/10 05:40:25;;;;;;;5.97;2.10;;;;;;;;;;5475674;26;20021;-79
2024/04/10 05:42:50;;;;;;;6.75;1.80;;;;;;;;;;5483859;26;19998;-81
2024/04/10 05:45:22;;;;;;;6.32;1.65;;;;;;;;;;5481607;26;20013;-83
2024/04/10 05:47:50;;;;;;;4.53;1.60;;;;;;;;;;5484969;26;20052;-83
2024/04/10 05:50:16;;;;;;;5.13;1.52;;;;;;;;;;5476660;26;20014;-82
2024/04/10 05:52:42;;;;;;;8.90;1.85;;;;;;;;;;5467595;26;20075;-87
2024/04/10 05:55:09;;;;;;;5.38;1.48;;;;;;;;;;5484732;26;20321;-85
2024/04/10 05:57:34;;;;;;;9.80;1.95;;;;;;;;;;5486255;26;19998;-86
2024/04/10 06:00:00;;;;;;;5.55;1.40;;;;;;;;;;5483647;26;20034;-88
2024/04/10 06:02:27;;;;;;;5.50;1.70;;;;;;;;;;5481040;26;20039;-86
2024/04/10 06:04:59;;;;;;;7.30;1.90;;;;;;;;;;5484557;26;20462;-86
2024/04/10 06:07:25;;;;;;;7.28;1.65;;;;;;;;;;5467162;26;20041;-86
2024/04/10 06:09:54;;;;;;;9.00;1.80;;;;;;;;;;5468031;26;19994;-86
2024/04/10 06:12:19;;;;;;;8.45;1.70;;;;;;;;;;5484042;26;20006;-86
2024/04/10 06:14:45;;;;;;;5.78;1.83;;;;;;;;;;5478822;26;20350;-85
2024/04/10 06:17:10;;;;;;;4.18;1.60;;;;;;;;;;5474696;26;20342;-86
2024/04/10 06:19:36;;;;;;;4.88;1.60;;;;;;;;;;5477128;26;20014;-86
2024/04/10 06:22:01;;;;;;;6.57;1.70;;;;;;;;;;5486900;26;20441;-88
2024/04/10 06:24:27;;;;;;;5.07;1.50;;;;;;;;;;5483408;26;20065;-79
2024/04/10 06:26:52;;;;;;;8.60;1.83;;;;;;;;;;5464322;26;20009;-80
2024/04/10 06:29:18;;;;;;;9.05;2.00;;;;;;;;;;5487561;26;20035;-86
2024/04/10 06:31:43;;;;;;;9.25;2.03;;;;;;;;;;5488162;26;20008;-87
2024/04/10 06:34:09;;;;;;;6.10;1.70;;;;;;;;;;5492213;26;20095;-85
2024/04/10 06:36:34;;;;;;;6.22;1.58;;;;;;;;;;5490783;26;20001;-86
2024/04/10 06:39:00;;;;;;;5.78;1.67;;;;;;;;;;5491300;26;20014;-86
2024/04/10 06:41:25;;;;;;;5.25;1.70;;;;;;;;;;5489707;26;20014;-86
2024/04/10 06:43:51;;;;;;;7.78;1.63;;;;;;;;;;5469348;26;20030;-86
2024/04/10 06:46:19;;;;;;;7.07;1.45;;;;;;;;;;5460220;26;20035;-82
2024/04/10 06:48:46;;;;;;;6.35;1.73;;;;;;;;;;5479531;26;20450;-82
2024/04/10 06:51:12;;;;;;;5.57;1.58;;;;;;;;;;5489798;26;20472;-80
2024/04/10 06:53:37;;;;;;;7.13;1.85;;;;;;;;;;5486649;26;19994;-86
2024/04/10 06:56:05;;;;;;;6.70;1.75;;;;;;;;;;5489921;26;20473;-86
2024/04/10 06:58:34;;;;;;;6.85;1.95;;;;;;;;;;5487667;26;20354;-84
2024/04/10 07:01:04;;;;;;;5.63;1.83;;;;;;;;;;5489573;26;20012;-85
2024/04/10 07:03:40;;;;;;;8.77;1.63;;;;;;;;;;5474197;26;20014;-87
2024/04/10 07:06:09;;;;;;;5.20;1.73;;;;;;;;;;5469424;26;20006;-85
2024/04/10 07:08:37;;;;;;;8.45;1.73;;;;;;;;;;5525430;26;20001;-86
2024/04/10 07:11:04;;;;;;;9.05;1.98;;;;;;;;;;5525415;25;20005;-86
2024/04/10 07:13:32;;;;;;;9.63;1.92;;;;;;;;;;5494059;26;20001;-88
2024/04/10 07:16:03;;;;;;;7.47;2.33;;;;;;;;;;5493411;26;20008;-87
2024/04/10 07:18:30;;;;;;;9.38;1.80;;;;;;;;;;5526314;26;20027;-87
2024/04/10 07:21:03;;;;;;;6.82;1.55;;;;;;;;;;5527287;26;20083;-87
2024/04/10 07:23:29;;;;;;;6.82;1.58;;;;;;;;;;5518678;26;20357;-87
2024/04/10 07:26:12;;;;;;;9.38;1.92;;;;;;;;;;5493395;26;20002;-87
2024/04/10 07:28:47;;;;;;;8.20;1.77;;;;;;;;;;5507969;26;20405;-87
2024/04/10 07:31:15;;;;;;;4.88;1.55;;;;;;;;;;5482682;26;19993;-86
2024/04/10 07:33:41;;;;;;;14.65;2.88;;;;;;;;;;5511995;26;19994;-87
2024/04/10 07:36:17;;;;;;;9.57;1.80;;;;;;;;;;5494416;25;20093;-83
2024/04/10 07:38:42;;;;;;;8.65;2.15;;;;;;;;;;5526318;26;19993;-81
2024/04/10 07:41:09;;;;;;;8.18;1.73;;;;;;;;;;5528181;26;20038;-83
2024/04/10 07:43:35;;;;;;;7.72;2.17;;;;;;;;;;5501305;26;20348;-83
2024/04/10 07:46:13;;;;;;;10.55;1.58;;;;;;;;;;5491204;26;19993;-83
2024/04/10 07:48:49;;;;;;;9.32;1.90;;;;;;;;;;5487497;26;20039;-83
2024/04/10 07:51:15;;;;;;;6.60;1.30;;;;;;;;;;5494161;26;20034;-83
2024/04/10 07:53:46;;;;;;;8.35;1.88;;;;;;;;;;5494636;26;20002;-83
2024/04/10 07:56:15;;;;;;;9.45;2.13;;;;;;;;;;5526752;26;20020;-85
2024/04/10 07:58:41;;;;;;;7.95;1.60;;;;;;;;;;5487866;26;19993;-85
2024/04/10 08:01:06;;;;;;;5.82;1.48;;;;;;;;;;5493270;26;19997;-85
2024/04/10 08:03:34;;;;;;;9.82;1.70;;;;;;;;;;5524852;26;20008;-85
2024/04/10 08:06:03;;;;;;;7.05;1.58;;;;;;;;;;5480892;26;20020;-86
2024/04/10 08:08:29;;;;;;;9.65;1.60;;;;;;;;;;5514038;26;20001;-86
2024/04/10 08:10:57;;;;;;;7.90;1.75;;;;;;;;;;5484553;26;20457;-83
2024/04/10 08:13:22;;;;;;;12.93;1.75;;;;;;;;;;5524386;26;20038;-83
2024/04/10 08:16:01;;;;;;;6.55;1.45;;;;;;;;;;5491345;26;20005;-86
2024/04/10 08:18:31;;;;;;;9.07;1.70;;;;;;;;;;5484088;26;19998;-86
2024/04/10 08:21:10;;;;;;;9.40;1.63;;;;;;;;;;5473698;26;20001;-87
2024/04/10 08:23:37;;;;;;;11.48;1.70;;;;;;;;;;5524028;26;19993;-86
2024/04/10 08:26:17;;;;;;;7.40;1.42;;;;;;;;;;5523244;25;20015;-86
2024/04/10 08:28:49;;;;;;;8.55;1.90;;;;;;;;;;5490654;26;20016;-86
2024/04/10 08:31:16;;;;;;;6.40;1.92;;;;;;;;;;5472757;26;20496;-85
2024/04/10 08:33:46;;;;;;;7.70;1.92;;;;;;;;;;5522667;26;19997;-86
2024/04/10 08:36:16;;;;;;;9.35;1.48;;;;;;;;;;5486772;26;20020;-85
2024/04/10 08:38:43;;;;;;;5.78;1.50;;;;;;;;;;5524124;26;19998;-86
2024/04/10 08:41:13;;;;;;;6.82;1.40;;;;;;;;;;5518144;26;20374;-86
2024/04/10 08:43:43;;;;;;;6.68;1.50;;;;;;;;;;5487649;26;19994;-86
2024/04/10 08:46:09;;;;;;;7.75;1.38;;;;;;;;;;5511030;26;20126;-86
2024/04/10 08:48:37;;;;;;;9.35;1.63;;;;;;;;;;5504959;25;20555;-86
2024/04/10 08:51:05;;;;;;;8.48;1.95;;;;;;;;;;5509813;26;20027;-86
2024/04/10 08:53:34;;;;;;;8.63;1.25;;;;;;;;;;5521553;25;20001;-86
2024/04/10 08:56:00;;;;;;;6.25;1.20;;;;;;;;;;5525388;25;19997;-86
2024/04/10 08:58:26;;;;;;;8.05;1.42;;;;;;;;;;5521867;26;20008;-87
2024/04/10 09:00:52;;;;;;;8.45;1.60;;;;;;;;;;5524909;25;20009;-87
2024/04/10 09:03:20;;;;;;;7.60;1.40;;;;;;;;;;5511826;26;20002;-86
2024/04/10 09:05:46;;;;;;;11.07;1.77;;;;;;;;;;5521647;26;20042;-86
2024/04/10 09:08:12;;;;;;;7.28;1.40;;;;;;;;;;5500919;26;19993;-86
2024/04/10 09:10:37;;;;;;;5.03;1.25;;;;;;;;;;5520599;25;20359;-86
2024/04/10 09:13:08;;;;;;;9.02;1.40;;;;;;;;;;5524741;25;20033;-84
2024/04/10 09:15:39;;;;;;;7.78;1.30;;;;;;;;;;5515974;26;20005;-82
2024/04/10 09:18:06;;;;;;;6.13;1.30;;;;;;;;;;5524616;26;20008;-82
2024/04/10 09:20:32;;;;;;;6.47;1.70;;;;;;;;;;5517410;26;20406;-83
2024/04/10 09:23:03;;;;;;;8.40;1.42;;;;;;;;;;5523892;26;19998;-82
2024/04/10 09:25:35;;;;;;;6.90;1.40;;;;;;;;;;5522490;25;19998;-82
2024/04/10 09:28:03;;;;;;;6.75;1.58;;;;;;;;;;5526042;25;20013;-82
2024/04/10 09:30:34;;;;;;;6.15;1.48;;;;;;;;;;5505615;26;19997;-83
2024/04/10 09:33:00;;;;;;;7.07;1.40;;;;;;;;;;5507381;26;19994;-82
2024/04/10 09:35:26;;;;;;;3.85;1.40;;;;;;;;;;5544984;25;20339;-82
2024/04/10 09:37:58;;;;;;;7.00;1.40;;;;;;;;;;5522302;25;20446;-83
2024/04/10 09:40:25;;;;;;;8.18;1.50;;;;;;;;;;5514112;26;20002;-83
2024/04/10 09:42:59;;;;;;;8.20;1.20;;;;;;;;;;5519269;26;20124;-82
2024/04/10 09:45:27;;;;;;;11.77;1.73;;;;;;;;;;5515049;26;20436;-82
2024/04/10 09:47:55;;;;;;;5.07;1.23;;;;;;;;;;5490565;26;19994;-82
2024/04/10 09:50:29;;;;;;;6.97;1.52;;;;;;;;;;5501201;26;20074;-83
2024/04/10 09:52:55;;;;;;;6.78;1.52;;;;;;;;;;5519799;26;20008;-83
2024/04/10 09:55:21;;;;;;;6.35;1.33;;;;;;;;;;5527459;26;20069;-83
2024/04/10 09:57:47;;;;;;;5.32;1.55;;;;;;;;;;5528775;25;20001;-84
2024/04/10 10:00:16;;;;;;;6.78;1.30;;;;;;;;;;5519224;26;20037;-84
2024/04/10 10:02:41;;;;;;;8.18;1.10;;;;;;;;;;5505251;26;20084;-82
2024/04/10 10:05:21;;;;;;;3.25;0.90;;;;;;;;;;5496222;26;20013;-83
2024/04/10 10:07:50;;;;;;;7.10;1.38;;;;;;;;;;5474653;26;19998;-82
2024/04/10 10:10:16;;;;;;;4.68;0.95;;;;;;;;;;5517851;26;20009;-83
2024/04/10 10:12:44;;;;;;;5.70;1.10;;;;;;;;;;5511624;26;20016;-83
2024/04/10 10:15:12;;;;;;;6.53;1.50;;;;;;;;;;5496606;26;19993;-83
2024/04/10 10:17:38;;;;;;;6.15;1.10;;;;;;;;;;5527364;26;20012;-85
2024/04/10 10:20:04;;;;;;;5.82;1.15;;;;;;;;;;5523031;26;19997;-84
2024/04/10 10:22:30;;;;;;;6.68;1.35;;;;;;;;;;5520541;26;20002;-84
2024/04/10 10:24:59;;;;;;;5.70;1.02;;;;;;;;;;5506737;25;20012;-83
2024/04/10 10:27:25;;;;;;;3.85;1.00;;;;;;;;;;5525817;26;19993;-81
2024/04/10 10:30:06;;;;;;;4.47;0.90;;;;;;;;;;5512732;26;20073;-80
2024/04/10 10:32:32;;;;;;;4.25;1.13;;;;;;;;;;5500216;26;20514;-81
2024/04/10 10:35:15;;;;;;;4.55;0.90;;;;;;;;;;5519371;26;20005;-86
2024/04/10 10:37:41;;;;;;;4.68;0.80;;;;;;;;;;5504606;26;20001;-85
2024/04/10 10:40:07;;;;;;;5.30;1.00;;;;;;;;;;5527239;25;20016;-86
2024/04/10 10:42:33;;;;;;;3.72;0.90;;;;;;;;;;5522587;25;19998;-86
2024/04/10 10:45:05;;;;;;;8.52;1.33;;;;;;;;;;5515549;26;20025;-86
2024/04/10 10:47:41;;;;;;;5.10;1.10;;;;;;;;;;5523912;26;19997;-85
2024/04/10 10:50:07;;;;;;;4.10;0.82;;;;;;;;;;5519333;26;20012;-85
2024/04/10 10:52:32;;;;;;;5.30;1.00;;;;;;;;;;5516464;26;20009;-85
2024/04/10 10:55:07;;;;;;;4.45;1.17;;;;;;;;;;5513585;26;20005;-88
2024/04/10 10:57:34;;;;;;;4.10;1.25;;;;;;;;;;5520378;25;20344;-86
2024/04/10 11:00:13;;;;;;;3.63;0.80;;;;;;;;;;5514979;26;20010;-86
2024/04/10 11:02:41;;;;;;;4.03;0.70;;;;;;;;;;5523024;26;19998;-86
2024/04/10 11:05:11;;;;;;;4.38;0.90;;;;;;;;;;5521184;25;19998;-85
2024/04/10 11:07:37;;;;;;;7.10;1.02;;;;;;;;;;5513263;26;20460;-86
2024/04/10 11:10:07;;;;;;;6.60;0.90;;;;;;;;;;5525879;25;20456;-87
2024/04/10 11:12:32;;;;;;;4.88;0.95;;;;;;;;;;5508580;26;20376;-86
2024/04/10 11:15:09;;;;;;;4.53;1.17;;;;;;;;;;5526103;25;19994;-85
2024/04/10 11:17:35;;;;;;;5.10;0.90;;;;;;;;;;5506328;26;20047;-87
2024/04/10 11:20:00;;;;;;;3.88;0.90;;;;;;;;;;5513905;25;20009;-86
2024/04/10 11:22:26;;;;;;;3.92;0.93;;;;;;;;;;5509807;26;20009;-87
2024/04/10 11:24:52;;;;;;;3.00;0.73;;;;;;;;;;5503926;26;20333;-87
2024/04/10 11:27:19;;;;;;;5.40;1.10;;;;;;;;;;5526011;25;20465;-87
2024/04/10 11:29:44;;;;;;;4.13;1.05;;;;;;;;;;5524448;25;20008;-86
2024/04/10 11:32:10;;;;;;;4.35;0.85;;;;;;;;;;5524429;25;20345;-87
2024/04/10 11:34:35;;;;;;;5.47;0.90;;;;;;;;;;5515913;26;19998;-86
2024/04/10 11:37:02;;;;;;;4.32;1.08;;;;;;;;;;5502850;26;20419;-83
2024/04/10 11:39:28;;;;;;;3.28;0.82;;;;;;;;;;5512201;26;20322;-82
2024/04/10 11:41:53;;;;;;;6.70;1.05;;;;;;;;;;5516406;26;20016;-85
2024/04/10 11:44:19;;;;;;;4.55;1.10;;;;;;;;;;5506282;26;19994;-85
2024/04/10 11:46:46;;;;;;;4.85;0.95;;;;;;;;;;5523205;26;20005;-80
2024/04/10 11:49:12;;;;;;;4.70;1.00;;;;;;;;;;5506813;26;20030;-81
2024/04/10 11:51:37;;;;;;;4.05;0.93;;;;;;;;;;5515021;25;19997;-81
2024/04/10 11:54:03;;;;;;;6.95;0.90;;;;;;;;;;5523637;26;20008;-82
2024/04/10 11:56:28;;;;;;;5.50;0.95;;;;;;;;;;5517073;26;19994;-82
2024/04/10 11:58:53;;;;;;;4.15;0.82;;;;;;;;;;5520131;26;20003;-81
2024/04/10 12:01:20;;;;;;;2.85;0.80;;;;;;;;;;5525312;25;20111;-81
2024/04/10 12:03:46;;;;;;;4.20;0.98;;;;;;;;;;5521192;25;20029;-82
2024/04/10 12:06:12;;;;;;;4.97;0.90;;;;;;;;;;5521676;26;20017;-81
2024/04/10 12:08:37;;;;;;;4.65;1.00;;;;;;;;;;5519826;25;19998;-81
2024/04/10 12:11:05;;;;;;;3.05;0.75;;;;;;;;;;5501584;26;20007;-81
2024/04/10 12:13:31;;;;;;;3.70;0.80;;;;;;;;;;5519551;26;20349;-80
2024/04/10 12:15:56;;;;;;;8.07;1.33;;;;;;;;;;5502419;26;20012;-82
2024/04/10 12:18:21;;;;;;;2.72;0.82;;;;;;;;;;5512528;26;20016;-82
2024/04/10 12:20:47;;;;;;;3.63;0.93;;;;;;;;;;5501320;26;20013;-81
2024/04/10 12:23:12;;;;;;;3.92;1.08;;;;;;;;;;5519013;25;20375;-82
2024/04/10 12:25:38;;;;;;;3.65;1.13;;;;;;;;;;5502805;26;20078;-84
2024/04/10 12:28:04;;;;;;;5.00;0.90;;;;;;;;;;5520296;26;20007;-83
2024/04/10 12:30:29;;;;;;;4.15;1.08;;;;;;;;;;5521538;25;20115;-83
2024/04/10 12:32:54;;;;;;;3.90;0.80;;;;;;;;;;5499758;26;20125;-84
2024/04/10 12:38:07;;;;;;;3.47;0.93;;;;;;;;;;5526116;26;20012;-83
2024/04/10 12:40:34;;;;;;;4.60;0.90;;;;;;;;;;5512267;25;19993;-83
2024/04/10 12:43:03;;;;;;;3.88;0.90;;;;;;;;;;5520355;26;20468;-83
2024/04/10 12:45:29;;;;;;;3.30;0.80;;;;;;;;;;5492377;26;20321;-83
2024/04/10 12:47:54;;;;;;;3.25;0.93;;;;;;;;;;5524108;26;19997;-82
2024/04/10 12:50:19;;;;;;;2.40;0.70;;;;;;;;;;5499276;26;19997;-82
2024/04/10 12:52:45;;;;;;;6.70;0.95;;;;;;;;;;5500405;26;20472;-83
2024/04/10 12:55:10;;;;;;;6.05;1.00;;;;;;;;;;5521542;26;19997;-83
2024/04/10 12:57:36;;;;;;;3.38;0.73;;;;;;;;;;5509648;26;19997;-82
2024/04/10 13:00:06;;;;;;;2.67;0.70;;;;;;;;;;5522914;26;20012;-81
2024/04/10 13:02:31;;;;;;;4.97;1.13;;;;;;;;;;5505109;26;20024;-81
2024/04/10 13:04:59;;;;;;;4.93;1.00;;;;;;;;;;5493787;26;19998;-83
2024/04/10 13:07:25;;;;;;;5.53;1.00;;;;;;;;;;5520155;26;20471;-82
2024/04/10 13:09:51;;;;;;;4.93;1.00;;;;;;;;;;5514432;26;19997;-82
2024/04/10 13:12:17;;;;;;;6.03;1.13;;;;;;;;;;5519671;26;20041;-82
2024/04/10 13:14:42;;;;;;;3.95;1.25;;;;;;;;;;5510153;26;20021;-82
2024/04/10 13:17:08;;;;;;;4.05;1.30;;;;;;;;;;5535880;25;20367;-82
2024/04/10 13:19:34;;;;;;;4.75;1.00;;;;;;;;;;5514654;26;19993;-82
2024/04/10 13:22:01;;;;;;;5.00;1.00;;;;;;;;;;5522936;26;20406;-82
2024/04/10 13:24:27;;;;;;;7.40;1.00;;;;;;;;;;5521000;25;20460;-82
2024/04/10 13:26:53;;;;;;;4.30;1.23;;;;;;;;;;5523061;25;20026;-84
2024/04/10 13:29:18;;;;;;;4.47;1.00;;;;;;;;;;5518162;26;20001;-82
2024/04/10 13:31:44;;;;;;;4.15;0.93;;;;;;;;;;5515432;26;19997;-82
2024/04/10 13:34:09;;;;;;;5.05;1.30;;;;;;;;;;5522050;26;19993;-82
2024/04/10 13:36:35;;;;;;;6.18;1.30;;;;;;;;;;5507636;26;20016;-81
2024/04/10 13:39:00;;;;;;;4.32;1.27;;;;;;;;;;5523484;26;20024;-82
2024/04/10 13:41:28;;;;;;;7.68;3.10;;;;;;;;;;5524598;25;20348;-83
2024/04/10 13:43:54;;;;;;;7.28;2.28;;;;;;;;;;5524551;25;20044;-82
2024/04/10 13:46:21;;;;;;;6.13;1.48;;;;;;;;;;5517129;26;20009;-82
2024/04/10 13:48:47;;;;;;;4.53;1.20;;;;;;;;;;5511427;26;19998;-84
2024/04/10 13:51:24;;;;;;;5.05;1.15;;;;;;;;;;5495468;26;19990;-82
2024/04/10 13:53:49;;;;;;;2.17;0.90;;;;;;;;;;5512802;26;20404;-82
2024/04/10 13:56:15;;;;;;;3.63;1.30;;;;;;;;;;5505036;26;20014;-86
2024/04/10 13:58:41;;;;;;;4.05;1.58;;;;;;;;;;5510219;26;19998;-87
2024/04/10 14:01:14;;;;;;;6.82;1.17;;;;;;;;;;5521194;25;20009;-86
2024/04/10 14:03:45;;;;;;;8.05;1.48;;;;;;;;;;5517576;26;20450;-87
2024/04/10 14:06:10;;;;;;;5.70;1.00;;;;;;;;;;5507848;26;20012;-85
2024/04/10 14:08:37;;;;;;;4.70;0.90;;;;;;;;;;5521614;25;19998;-86
2024/04/10 14:11:06;;;;;;;2.30;0.82;;;;;;;;;;5523001;25;19993;-86
2024/04/10 14:13:33;;;;;;;3.50;0.80;;;;;;;;;;5523933;25;19994;-87
2024/04/10 14:16:00;;;;;;;3.50;0.90;;;;;;;;;;5523121;25;19997;-89
2024/04/10 14:18:26;;;;;;;5.65;0.90;;;;;;;;;;5520641;26;20047;-88
2024/04/10 14:21:05;;;;;;;5.82;1.40;;;;;;;;;;5493155;26;20020;-87
2024/04/10 14:23:34;;;;;;;3.08;1.33;;;;;;;;;;5505341;26;19998;-86
2024/04/10 14:26:00;;;;;;;3.38;1.00;;;;;;;;;;5520579;25;19990;-87
2024/04/10 14:28:31;;;;;;;2.53;1.00;;;;;;;;;;5525137;25;20012;-86
2024/04/10 14:31:02;;;;;;;3.97;1.45;;;;;;;;;;5519353;25;20453;-89
2024/04/10 14:33:27;;;;;;;4.80;1.05;;;;;;;;;;5515353;26;19997;-87
2024/04/10 14:35:54;;;;;;;4.25;1.63;;;;;;;;;;5516362;26;20024;-86
2024/04/10 14:38:26;;;;;;;3.72;1.00;;;;;;;;;;5523781;26;19998;-87
2024/04/10 14:40:52;;;;;;;3.73;1.80;;;;;;;;;;5525388;26;20009;-87
2024/04/10 14:43:18;;;;;;;4.97;1.60;;;;;;;;;;5524632;26;20382;-87
2024/04/10 14:45:43;;;;;;;5.25;1.73;;;;;;;;;;5510636;26;20014;-87
2024/04/10 14:48:11;;;;;;;4.75;1.38;;;;;;;;;;5512480;26;19998;-85
2024/04/10 14:50:37;;;;;;;4.93;1.30;;;;;;;;;;5524970;25;20474;-87